Time;durP1;ratioP1;P1;durP2;ratioP2;P2;SDS_P1;SDS_P2;PMS_P1;PMS_P2;Temp;Humidity;BMP_temperature;BMP_pressure;BME280_temperature;BME280_humidity;BME280_pressure;Samples;Min_cycle;Max_cycle;Signal;HPM_P1;HPM_P2
2022/09/27 00:00:30;;;;;;;2.60;2.30;;;15.40;99.90;;;;;;6069550;23;20447;-81
2022/09/27 00:02:57;;;;;;;3.30;1.80;;;15.40;99.90;;;;;;6068835;23;20452;-80
2022/09/27 00:05:24;;;;;;;1.73;1.63;;;15.40;99.90;;;;;;6069313;23;20447;-77
2022/09/27 00:07:51;;;;;;;1.87;1.67;;;15.40;99.90;;;;;;6068156;23;21094;-77
2022/09/27 00:14:17;;;;;;;2.07;1.80;;;15.30;99.90;;;;;;5953410;23;20468;-77
2022/09/27 00:16:46;;;;;;;1.97;1.87;;;15.20;99.90;;;;;;6068233;23;20432;-81
2022/09/27 00:19:15;;;;;;;2.70;2.30;;;15.30;99.90;;;;;;6054476;23;20749;-80
2022/09/27 00:21:43;;;;;;;2.10;1.90;;;15.20;99.90;;;;;;6068764;23;23371;-80
2022/09/27 00:24:13;;;;;;;1.93;1.83;;;15.20;99.90;;;;;;6068790;23;20448;-80
2022/09/27 00:26:40;;;;;;;2.43;2.10;;;15.20;99.90;;;;;;6069081;23;20500;-77
2022/09/27 00:29:07;;;;;;;1.90;1.60;;;15.20;99.90;;;;;;6069151;23;20440;-81
2022/09/27 00:31:35;;;;;;;4.13;2.27;;;15.20;99.90;;;;;;6068387;23;20515;-81
2022/09/27 00:34:49;;;;;;;1.57;1.47;;;15.20;99.90;;;;;;6069337;23;20460;-77
2022/09/27 00:37:16;;;;;;;3.30;2.07;;;15.20;99.90;;;;;;6069175;23;20436;-78
2022/09/27 00:39:43;;;;;;;2.33;2.13;;;15.20;99.90;;;;;;6069129;23;20436;-81
2022/09/27 00:42:12;;;;;;;1.57;1.47;;;15.20;99.90;;;;;;6068597;23;20444;-81
2022/09/27 00:45:06;;;;;;;1.93;1.83;;;15.10;99.90;;;;;;6069129;23;20443;-82
2022/09/27 00:47:39;;;;;;;3.50;2.00;;;15.20;99.90;;;;;;6068962;23;20837;-81
2022/09/27 00:50:14;;;;;;;1.73;1.63;;;15.20;99.90;;;;;;6069203;23;20445;-81
2022/09/27 00:52:47;;;;;;;1.87;1.73;;;15.10;99.90;;;;;;6068865;23;20884;-81
2022/09/27 00:55:19;;;;;;;3.50;2.30;;;15.10;99.90;;;;;;6069080;23;20451;-78
2022/09/27 00:57:48;;;;;;;2.43;1.77;;;15.10;99.90;;;;;;6069064;23;20433;-78
2022/09/27 01:00:16;;;;;;;2.97;2.07;;;15.10;99.90;;;;;;6068815;23;20441;-78
2022/09/27 01:02:46;;;;;;;1.63;1.53;;;15.10;99.90;;;;;;6067994;23;20453;-78
2022/09/27 01:05:18;;;;;;;3.60;2.27;;;15.00;99.90;;;;;;6070211;23;20432;-82
2022/09/27 01:07:45;;;;;;;2.43;2.23;;;15.00;99.90;;;;;;6071746;23;20443;-82
2022/09/27 01:10:13;;;;;;;2.90;2.30;;;15.00;99.90;;;;;;6069224;23;20444;-82
2022/09/27 01:12:51;;;;;;;2.20;2.00;;;15.00;99.90;;;;;;6066654;23;20444;-78
2022/09/27 01:15:25;;;;;;;2.83;1.83;;;15.00;99.90;;;;;;6068808;23;20797;-76
2022/09/27 01:18:14;;;;;;;2.03;1.60;;;14.90;99.90;;;;;;6068804;23;20487;-80
2022/09/27 01:21:32;;;;;;;1.80;1.50;;;15.00;99.90;;;;;;6054109;23;20527;-80
2022/09/27 01:24:22;;;;;;;2.90;2.03;;;15.00;99.90;;;;;;6068092;23;20452;-80
2022/09/27 01:27:21;;;;;;;1.90;1.70;;;14.90;99.90;;;;;;6066256;23;20695;-81
2022/09/27 01:30:03;;;;;;;3.03;1.77;;;14.90;99.90;;;;;;6067032;23;20436;-81
2022/09/27 01:32:40;;;;;;;2.17;1.97;;;14.90;99.90;;;;;;6068045;23;20448;-81
2022/09/27 01:35:24;;;;;;;1.87;1.70;;;14.90;99.90;;;;;;6068674;23;20503;-77
2022/09/27 01:37:58;;;;;;;2.47;2.27;;;14.90;99.90;;;;;;6054549;23;20451;-78
2022/09/27 01:40:34;;;;;;;3.10;2.07;;;14.90;99.90;;;;;;6055444;23;20432;-78
2022/09/27 01:43:06;;;;;;;2.77;2.00;;;14.90;99.90;;;;;;6053525;23;20447;-81
2022/09/27 01:45:39;;;;;;;2.27;2.13;;;14.90;99.90;;;;;;6068431;23;20433;-81
2022/09/27 01:48:15;;;;;;;2.53;2.00;;;14.90;99.90;;;;;;6066494;23;20801;-76
2022/09/27 01:50:45;;;;;;;1.93;1.83;;;14.90;99.90;;;;;;6053493;23;20503;-77
2022/09/27 01:53:18;;;;;;;2.57;2.03;;;14.90;99.90;;;;;;6060446;23;20936;-78
2022/09/27 01:55:48;;;;;;;2.43;2.17;;;14.90;99.90;;;;;;6054496;23;20444;-76
2022/09/27 01:58:42;;;;;;;3.50;2.10;;;14.90;99.90;;;;;;6066667;23;20468;-76
2022/09/27 02:01:13;;;;;;;4.20;1.70;;;14.90;99.90;;;;;;6068185;23;20441;-78
2022/09/27 02:03:44;;;;;;;2.43;2.23;;;14.90;99.90;;;;;;6066936;23;20453;-77
2022/09/27 02:06:23;;;;;;;2.40;2.20;;;14.90;99.90;;;;;;6067221;23;20443;-78
2022/09/27 02:09:10;;;;;;;2.17;1.90;;;14.90;99.90;;;;;;6053846;23;20444;-76
2022/09/27 02:11:44;;;;;;;2.03;1.70;;;14.90;99.90;;;;;;6064599;23;20436;-77
2022/09/27 02:14:16;;;;;;;1.87;1.73;;;14.90;99.90;;;;;;6068464;23;20436;-81
2022/09/27 02:16:49;;;;;;;1.77;1.60;;;14.90;99.90;;;;;;6067930;23;20801;-81
2022/09/27 02:19:29;;;;;;;1.67;1.57;;;14.90;99.90;;;;;;6067834;23;20511;-80
2022/09/27 02:22:06;;;;;;;1.90;1.70;;;15.00;99.90;;;;;;6068473;23;20439;-76
2022/09/27 02:24:41;;;;;;;2.80;1.90;;;15.00;99.90;;;;;;6067723;23;20428;-76
2022/09/27 02:27:14;;;;;;;2.13;1.70;;;14.90;99.90;;;;;;6068475;23;20440;-76
2022/09/27 02:29:55;;;;;;;1.77;1.67;;;14.90;99.90;;;;;;6068564;23;20429;-78
2022/09/27 02:32:22;;;;;;;4.00;2.23;;;15.00;99.90;;;;;;6067751;23;20737;-78
2022/09/27 02:34:52;;;;;;;3.13;2.10;;;15.00;99.90;;;;;;6067425;23;20433;-81
2022/09/27 02:37:22;;;;;;;3.53;1.60;;;15.00;99.90;;;;;;6069519;23;20929;-80
2022/09/27 02:39:49;;;;;;;1.67;1.57;;;15.00;99.90;;;;;;6068486;23;20518;-81
2022/09/27 02:42:16;;;;;;;3.50;2.00;;;15.00;99.90;;;;;;6068082;23;20448;-78
2022/09/27 02:44:43;;;;;;;1.70;1.57;;;15.00;99.90;;;;;;6067715;23;20527;-77
2022/09/27 02:47:29;;;;;;;1.50;1.40;;;15.00;99.90;;;;;;6067307;23;20499;-78
2022/09/27 02:50:11;;;;;;;3.70;1.90;;;15.00;99.90;;;;;;6066165;23;20429;-77
2022/09/27 02:52:49;;;;;;;2.13;1.93;;;15.00;99.90;;;;;;6066528;23;20752;-81
2022/09/27 02:55:24;;;;;;;3.17;1.83;;;15.00;99.90;;;;;;6068108;23;20472;-81
2022/09/27 02:58:03;;;;;;;1.70;1.60;;;15.00;99.90;;;;;;6067289;23;20507;-77
2022/09/27 03:00:36;;;;;;;2.00;1.67;;;15.10;99.90;;;;;;6067292;23;20740;-81
2022/09/27 03:03:09;;;;;;;2.10;1.90;;;15.10;99.90;;;;;;6068250;23;20428;-77
2022/09/27 03:05:41;;;;;;;2.30;2.13;;;15.10;99.90;;;;;;6068381;23;20428;-81
2022/09/27 03:08:10;;;;;;;2.00;1.37;;;15.10;99.90;;;;;;6068089;23;20500;-81
2022/09/27 03:10:37;;;;;;;2.20;2.10;;;15.10;99.90;;;;;;6068236;23;20440;-81
2022/09/27 03:13:05;;;;;;;2.10;2.00;;;15.10;99.90;;;;;;6067198;23;20916;-81
2022/09/27 03:15:32;;;;;;;2.60;2.17;;;15.10;99.90;;;;;;6067765;23;20440;-81
2022/09/27 03:17:59;;;;;;;1.60;1.50;;;15.10;99.90;;;;;;6067558;23;20439;-78
2022/09/27 03:20:26;;;;;;;3.80;2.77;;;15.10;99.90;;;;;;6068082;23;20440;-77
2022/09/27 03:22:55;;;;;;;2.50;1.50;;;15.10;99.90;;;;;;6054984;23;20491;-77
2022/09/27 03:25:22;;;;;;;1.37;1.27;;;15.10;99.90;;;;;;6068211;23;20432;-77
2022/09/27 03:27:50;;;;;;;1.93;1.83;;;15.20;99.90;;;;;;6067020;23;20436;-77
2022/09/27 03:30:25;;;;;;;4.40;2.27;;;15.20;99.90;;;;;;6068196;23;20816;-77
2022/09/27 03:33:00;;;;;;;2.30;2.13;;;15.20;99.90;;;;;;6068396;23;20436;-76
2022/09/27 03:35:35;;;;;;;2.13;1.93;;;15.10;99.90;;;;;;6069191;23;20918;-82
2022/09/27 03:38:08;;;;;;;2.73;2.40;;;15.10;99.90;;;;;;6068093;23;20436;-78
2022/09/27 03:40:36;;;;;;;1.97;1.80;;;15.20;99.90;;;;;;6069917;23;20459;-81
2022/09/27 03:43:03;;;;;;;3.83;2.30;;;15.10;99.90;;;;;;6068792;23;20519;-81
2022/09/27 03:45:33;;;;;;;2.90;2.30;;;15.20;99.90;;;;;;6070204;23;20455;-76
2022/09/27 03:48:01;;;;;;;2.10;1.90;;;15.20;99.90;;;;;;6067917;23;20440;-76
2022/09/27 03:50:28;;;;;;;2.20;2.00;;;15.20;99.90;;;;;;6069797;23;20440;-81
2022/09/27 03:52:55;;;;;;;2.80;2.60;;;15.10;99.90;;;;;;6069380;23;20932;-76
2022/09/27 03:55:23;;;;;;;2.43;1.80;;;15.10;99.90;;;;;;6069863;23;20432;-81
2022/09/27 03:57:50;;;;;;;2.50;2.10;;;15.20;99.90;;;;;;6069257;23;20436;-81
2022/09/27 04:00:18;;;;;;;3.13;2.30;;;15.20;99.90;;;;;;6069410;23;20487;-81
2022/09/27 04:02:54;;;;;;;2.50;2.30;;;15.10;99.90;;;;;;6069459;23;20539;-81
2022/09/27 04:05:21;;;;;;;3.50;2.57;;;15.10;99.90;;;;;;6068605;23;20424;-82
2022/09/27 04:07:48;;;;;;;2.37;2.17;;;15.10;99.90;;;;;;6069826;23;20511;-78
2022/09/27 04:10:16;;;;;;;2.80;2.13;;;15.10;99.90;;;;;;6067748;23;20443;-81
2022/09/27 04:12:45;;;;;;;2.57;2.30;;;15.10;99.90;;;;;;6068686;23;20440;-81
2022/09/27 04:15:12;;;;;;;2.43;2.23;;;15.00;99.90;;;;;;6069374;23;20440;-81
2022/09/27 04:17:41;;;;;;;4.10;2.40;;;15.00;99.90;;;;;;6069373;23;20810;-81
2022/09/27 04:20:09;;;;;;;4.47;2.30;;;15.00;99.90;;;;;;6069026;23;20928;-81
2022/09/27 04:22:39;;;;;;;2.30;2.10;;;14.90;99.90;;;;;;6056924;23;20778;-77
2022/09/27 04:25:08;;;;;;;2.70;2.50;;;14.90;99.90;;;;;;6068697;23;20920;-77
2022/09/27 04:27:35;;;;;;;5.47;2.37;;;14.90;99.90;;;;;;6069455;23;20428;-77
2022/09/27 04:30:22;;;;;;;4.80;3.30;;;14.80;99.90;;;;;;6068113;23;20445;-77
2022/09/27 04:32:48;;;;;;;4.50;3.40;;;14.80;99.90;;;;;;6070264;23;20456;-80
2022/09/27 04:38:00;;;;;;;4.90;3.93;;;14.90;99.90;;;;;;6068994;23;20459;-76
2022/09/27 04:40:30;;;;;;;3.23;2.87;;;14.90;99.90;;;;;;6068710;23;20459;-80
2022/09/27 04:42:58;;;;;;;3.60;2.50;;;14.80;99.90;;;;;;6069438;23;20504;-79
2022/09/27 04:45:27;;;;;;;2.90;2.27;;;14.80;99.90;;;;;;6068203;23;20448;-81
2022/09/27 04:47:54;;;;;;;4.10;1.93;;;14.80;99.90;;;;;;6069343;23;20753;-76
2022/09/27 04:50:21;;;;;;;4.47;2.60;;;14.80;99.90;;;;;;6068653;23;20496;-77
2022/09/27 04:52:50;;;;;;;3.23;2.67;;;14.70;99.90;;;;;;6069349;23;20605;-76
2022/09/27 04:55:17;;;;;;;4.53;2.97;;;14.70;99.90;;;;;;6068745;23;20441;-76
2022/09/27 04:57:44;;;;;;;2.60;2.03;;;14.70;99.90;;;;;;6068354;23;20464;-77
2022/09/27 05:00:13;;;;;;;2.47;2.27;;;14.70;99.90;;;;;;6067200;23;20440;-80
2022/09/27 05:02:43;;;;;;;2.93;2.47;;;14.70;99.90;;;;;;6068845;23;20440;-80
2022/09/27 05:05:10;;;;;;;3.97;2.37;;;14.50;99.90;;;;;;6068756;23;20495;-80
2022/09/27 05:07:42;;;;;;;2.33;2.13;;;14.60;99.90;;;;;;6069354;23;20810;-78
2022/09/27 05:10:09;;;;;;;2.50;2.30;;;14.50;99.90;;;;;;6068340;23;20479;-80
2022/09/27 05:12:37;;;;;;;2.40;2.20;;;14.50;99.90;;;;;;6069278;23;20432;-77
2022/09/27 05:15:05;;;;;;;2.13;1.90;;;14.40;99.90;;;;;;6069160;23;20648;-77
2022/09/27 05:17:32;;;;;;;3.83;2.20;;;14.40;99.90;;;;;;6068399;23;20428;-81
2022/09/27 05:20:01;;;;;;;3.87;2.57;;;14.40;99.90;;;;;;6068919;23;20472;-81
2022/09/27 05:22:29;;;;;;;2.22;2.10;;;14.40;99.90;;;;;;6069219;23;20499;-77
2022/09/27 05:24:55;;;;;;;3.07;2.53;;;14.40;99.90;;;;;;6069465;23;20212;-77
2022/09/27 05:27:22;;;;;;;4.67;2.63;;;14.30;99.90;;;;;;6068006;23;20440;-78
2022/09/27 05:29:49;;;;;;;4.18;3.78;;;14.30;99.90;;;;;;6068692;23;21044;-77
2022/09/27 05:32:17;;;;;;;3.60;3.30;;;14.30;99.90;;;;;;6068022;23;20585;-77
2022/09/27 05:34:44;;;;;;;3.23;3.00;;;14.30;99.90;;;;;;6068731;23;20904;-77
2022/09/27 05:37:13;;;;;;;6.60;4.20;;;14.30;99.90;;;;;;6066822;23;20456;-77
2022/09/27 05:39:40;;;;;;;5.88;5.00;;;14.30;99.90;;;;;;6068793;23;20428;-75
2022/09/27 05:42:09;;;;;;;7.07;4.60;;;14.30;99.90;;;;;;6068577;23;20207;-78
2022/09/27 05:44:37;;;;;;;2.83;2.63;;;14.30;99.90;;;;;;6075251;23;20200;-77
2022/09/27 05:47:04;;;;;;;6.97;5.10;;;14.20;99.90;;;;;;6069559;23;20211;-76
2022/09/27 05:49:32;;;;;;;13.00;8.53;;;14.20;99.90;;;;;;6068460;23;20447;-77
2022/09/27 05:51:59;;;;;;;12.00;8.95;;;14.20;99.90;;;;;;6069619;23;20456;-77
2022/09/27 05:54:28;;;;;;;4.85;4.35;;;14.20;99.90;;;;;;6068283;23;20211;-76
2022/09/27 05:56:57;;;;;;;4.70;3.80;;;14.10;99.90;;;;;;6066857;23;20215;-81
2022/09/27 05:59:24;;;;;;;5.60;5.07;;;14.20;99.90;;;;;;6051365;23;20504;-81
2022/09/27 06:01:51;;;;;;;3.37;3.07;;;14.10;99.90;;;;;;6069271;23;20756;-80
2022/09/27 06:04:19;;;;;;;6.60;3.03;;;14.10;99.90;;;;;;6068027;23;20460;-76
2022/09/27 06:06:45;;;;;;;3.85;3.55;;;14.10;99.90;;;;;;6068672;23;20437;-77
2022/09/27 06:09:15;;;;;;;6.47;3.25;;;14.10;99.90;;;;;;6067176;23;20498;-80
2022/09/27 06:11:44;;;;;;;5.43;4.93;;;14.10;99.90;;;;;;6067344;23;20565;-81
2022/09/27 06:14:12;;;;;;;6.32;4.18;;;14.10;99.90;;;;;;6067915;23;20267;-76
2022/09/27 06:16:39;;;;;;;5.22;3.92;;;14.10;99.90;;;;;;6068578;23;20243;-76
2022/09/27 06:19:06;;;;;;;5.10;4.60;;;14.10;99.90;;;;;;6067367;23;20208;-76
2022/09/27 06:21:33;;;;;;;4.32;3.08;;;14.20;99.90;;;;;;6066794;23;20207;-76
2022/09/27 06:24:00;;;;;;;4.60;3.93;;;14.20;99.90;;;;;;6066932;23;20271;-76
2022/09/27 06:26:28;;;;;;;8.30;5.33;;;14.20;99.90;;;;;;6068157;23;20436;-76
2022/09/27 06:28:56;;;;;;;3.47;3.17;;;14.20;99.90;;;;;;6067677;23;20446;-76
2022/09/27 06:31:24;;;;;;;8.98;4.38;;;14.20;99.90;;;;;;6067389;23;20436;-77
2022/09/27 06:33:57;;;;;;;5.10;3.90;;;14.30;99.90;;;;;;6068288;23;20263;-77
2022/09/27 06:36:24;;;;;;;4.90;4.40;;;14.30;99.90;;;;;;6067097;23;20263;-77
2022/09/27 06:38:51;;;;;;;7.47;5.10;;;14.30;99.90;;;;;;6067391;23;20444;-77
2022/09/27 06:41:19;;;;;;;4.40;4.03;;;14.30;99.90;;;;;;6067109;23;20444;-81
2022/09/27 06:43:48;;;;;;;3.97;3.50;;;14.30;99.90;;;;;;6067992;23;20208;-77
2022/09/27 06:46:17;;;;;;;3.92;3.60;;;14.30;99.90;;;;;;6067830;23;20448;-78
2022/09/27 06:48:43;;;;;;;4.95;3.28;;;14.30;99.90;;;;;;6068248;23;20222;-78
2022/09/27 06:51:10;;;;;;;3.03;2.50;;;14.30;99.90;;;;;;6067448;23;20219;-81
2022/09/27 06:53:40;;;;;;;3.30;2.15;;;14.30;99.90;;;;;;6068097;23;20208;-81
2022/09/27 06:56:07;;;;;;;2.35;2.15;;;14.30;99.90;;;;;;6067851;23;20214;-81
2022/09/27 07:01:20;;;;;;;2.57;2.37;;;14.30;99.90;;;;;;6067269;23;20239;-77
2022/09/27 07:03:50;;;;;;;4.80;2.60;;;14.30;99.90;;;;;;6066408;23;20912;-78
2022/09/27 07:06:19;;;;;;;4.97;2.65;;;14.30;99.90;;;;;;6067920;23;20211;-77
2022/09/27 07:08:50;;;;;;;2.73;2.53;;;14.20;99.90;;;;;;6070010;23;20208;-78
2022/09/27 07:11:17;;;;;;;4.80;3.03;;;14.30;99.90;;;;;;6069867;23;20479;-80
2022/09/27 07:13:46;;;;;;;2.37;2.17;;;14.30;99.90;;;;;;6070084;23;20444;-81
2022/09/27 07:16:13;;;;;;;2.93;2.10;;;14.30;99.90;;;;;;6069046;23;20465;-77
2022/09/27 07:18:43;;;;;;;4.40;2.90;;;14.40;99.90;;;;;;6070290;23;20508;-82
2022/09/27 07:21:11;;;;;;;3.10;2.90;;;14.30;99.90;;;;;;6069238;23;20440;-81
2022/09/27 07:23:38;;;;;;;2.70;2.50;;;14.40;99.90;;;;;;6070313;23;20432;-77
2022/09/27 07:26:10;;;;;;;2.70;2.50;;;14.30;99.90;;;;;;6069734;23;20442;-80
2022/09/27 07:28:39;;;;;;;2.90;2.70;;;14.30;99.90;;;;;;6069844;23;20200;-81
2022/09/27 07:31:09;;;;;;;3.33;2.97;;;14.30;99.90;;;;;;6069661;23;20444;-80
2022/09/27 07:33:36;;;;;;;5.00;4.00;;;14.30;99.90;;;;;;6070319;23;20511;-81
2022/09/27 07:36:08;;;;;;;4.32;3.92;;;14.30;99.90;;;;;;6069897;23;20504;-81
2022/09/27 07:38:35;;;;;;;3.80;3.50;;;14.30;99.90;;;;;;6069278;23;20260;-78
2022/09/27 07:41:06;;;;;;;4.03;3.42;;;14.40;99.90;;;;;;6069629;23;20519;-81
2022/09/27 07:43:34;;;;;;;4.83;4.43;;;14.30;99.90;;;;;;6068661;23;20219;-81
2022/09/27 07:46:01;;;;;;;6.47;3.70;;;14.30;99.90;;;;;;6069761;23;20975;-81
2022/09/27 07:48:28;;;;;;;9.90;5.00;;;14.40;99.90;;;;;;6053491;23;20752;-78
2022/09/27 07:50:55;;;;;;;4.17;3.23;;;14.30;99.90;;;;;;6069593;23;20437;-81
2022/09/27 07:53:23;;;;;;;4.03;3.07;;;14.30;99.90;;;;;;6069237;23;20503;-82
2022/09/27 07:55:52;;;;;;;9.33;3.70;;;14.30;99.90;;;;;;6056374;23;20439;-77
2022/09/27 07:58:20;;;;;;;7.70;4.87;;;14.30;99.90;;;;;;6069152;23;20499;-81
2022/09/27 08:00:47;;;;;;;5.05;4.40;;;14.30;99.90;;;;;;6069787;23;20444;-81
2022/09/27 08:03:16;;;;;;;4.97;4.33;;;14.30;99.90;;;;;;6068235;23;20644;-81
2022/09/27 08:05:46;;;;;;;6.88;3.40;;;14.30;99.90;;;;;;6070294;23;20865;-77
2022/09/27 08:08:17;;;;;;;5.17;3.47;;;14.30;99.90;;;;;;6072168;23;20552;-80
2022/09/27 08:10:46;;;;;;;6.10;3.77;;;14.30;99.90;;;;;;6072043;23;20436;-77
2022/09/27 08:13:18;;;;;;;8.20;4.33;;;14.20;99.90;;;;;;6071530;23;20456;-77
2022/09/27 08:15:51;;;;;;;6.17;3.50;;;14.20;99.90;;;;;;6055311;23;20523;-77
2022/09/27 08:18:23;;;;;;;5.70;2.90;;;14.20;99.90;;;;;;6072829;23;20437;-77
2022/09/27 08:20:56;;;;;;;2.40;2.20;;;14.20;99.90;;;;;;6070778;23;20432;-81
2022/09/27 08:23:26;;;;;;;3.67;2.87;;;14.20;99.90;;;;;;6074986;23;20804;-81
2022/09/27 08:25:56;;;;;;;7.53;2.85;;;14.20;99.90;;;;;;6070376;23;20507;-77
2022/09/27 08:28:24;;;;;;;3.60;2.60;;;14.10;99.90;;;;;;6067550;23;20251;-77
2022/09/27 08:30:51;;;;;;;2.60;2.40;;;14.20;99.90;;;;;;6068650;23;20432;-77
2022/09/27 08:33:18;;;;;;;4.20;3.23;;;14.20;99.90;;;;;;6068209;23;20477;-80
2022/09/27 08:35:59;;;;;;;35.40;31.30;;;14.20;99.90;;;;;;6068849;23;20914;-76
2022/09/27 08:38:26;;;;;;;33.90;24.30;;;14.20;99.90;;;;;;6053911;23;20439;-81
2022/09/27 08:40:59;;;;;;;23.98;19.48;;;14.20;99.90;;;;;;6068048;23;20512;-82
2022/09/27 08:43:42;;;;;;;6.73;5.60;;;14.30;99.90;;;;;;6067518;23;20228;-81
2022/09/27 08:46:35;;;;;;;3.67;3.20;;;14.30;99.90;;;;;;6069373;23;20440;-81
2022/09/27 08:49:20;;;;;;;6.50;3.40;;;14.30;99.90;;;;;;6072103;23;20433;-80
2022/09/27 08:51:54;;;;;;;5.57;4.05;;;14.30;99.90;;;;;;6069513;23;20507;-80
2022/09/27 08:54:28;;;;;;;3.05;2.85;;;14.30;99.90;;;;;;6059346;23;20303;-76
2022/09/27 08:57:03;;;;;;;3.20;2.90;;;14.40;99.90;;;;;;6072476;23;20259;-78
2022/09/27 08:59:36;;;;;;;2.67;2.47;;;14.40;99.90;;;;;;6068696;23;20199;-78
2022/09/27 09:02:12;;;;;;;4.80;4.40;;;14.40;99.90;;;;;;6069148;23;20440;-82
2022/09/27 09:04:41;;;;;;;4.60;3.50;;;14.40;99.90;;;;;;6068900;23;20491;-81
2022/09/27 09:07:18;;;;;;;5.50;4.53;;;14.40;99.90;;;;;;6069386;23;20429;-78
2022/09/27 09:09:53;;;;;;;4.20;3.77;;;14.40;99.90;;;;;;6068557;23;20487;-77
2022/09/27 09:15:27;;;;;;;3.33;3.03;;;14.40;99.90;;;;;;6061567;23;20440;-82
2022/09/27 09:18:18;;;;;;;3.27;3.00;;;14.40;99.90;;;;;;6069132;23;20527;-77
2022/09/27 09:20:58;;;;;;;3.60;3.20;;;14.40;99.90;;;;;;6068685;23;20440;-82
2022/09/27 09:23:44;;;;;;;3.50;3.03;;;14.40;99.90;;;;;;6068556;23;20444;-78
2022/09/27 09:26:18;;;;;;;3.47;3.17;;;14.40;99.90;;;;;;6054923;23;20986;-80
2022/09/27 09:29:05;;;;;;;5.95;3.65;;;14.40;99.90;;;;;;6060066;23;20441;-76
2022/09/27 09:31:50;;;;;;;3.97;3.00;;;14.40;99.90;;;;;;6070071;23;20204;-78
2022/09/27 09:34:22;;;;;;;4.23;3.40;;;14.40;99.90;;;;;;6069398;23;20444;-80
2022/09/27 09:36:56;;;;;;;6.00;3.47;;;14.50;99.90;;;;;;6068898;23;20444;-77
2022/09/27 09:39:27;;;;;;;4.00;3.60;;;14.50;99.90;;;;;;6068111;23;20924;-77
2022/09/27 09:42:05;;;;;;;3.83;3.47;;;14.50;99.90;;;;;;6067072;23;20444;-81
2022/09/27 09:44:46;;;;;;;4.03;3.20;;;14.60;99.90;;;;;;6067212;23;20470;-81
2022/09/27 09:47:21;;;;;;;3.97;3.50;;;14.60;99.90;;;;;;6067596;23;20530;-77
2022/09/27 09:49:55;;;;;;;6.30;5.17;;;14.70;99.90;;;;;;6069095;23;20911;-81
2022/09/27 09:52:27;;;;;;;6.97;6.10;;;14.70;99.90;;;;;;6068541;23;20440;-77
2022/09/27 09:55:03;;;;;;;5.37;4.93;;;14.80;99.90;;;;;;6068304;23;20428;-82
2022/09/27 09:57:39;;;;;;;5.73;3.87;;;14.90;99.90;;;;;;6067277;23;20440;-78
2022/09/27 10:00:26;;;;;;;4.07;3.73;;;15.00;99.90;;;;;;6068578;23;20503;-81
2022/09/27 10:02:55;;;;;;;5.83;5.23;;;15.10;99.90;;;;;;6067676;23;20432;-81
2022/09/27 10:05:24;;;;;;;4.27;3.57;;;15.10;99.90;;;;;;6067544;23;20449;-76
2022/09/27 10:07:55;;;;;;;4.13;3.80;;;15.10;99.90;;;;;;6067645;23;20436;-76
2022/09/27 10:10:22;;;;;;;5.83;3.87;;;15.20;99.90;;;;;;6068575;23;20444;-76
2022/09/27 10:12:51;;;;;;;4.40;3.77;;;15.20;99.90;;;;;;6067219;23;20440;-76
2022/09/27 10:15:21;;;;;;;3.57;3.33;;;15.20;99.90;;;;;;6068374;23;20499;-76
2022/09/27 10:17:51;;;;;;;5.90;4.00;;;15.30;99.90;;;;;;6066786;23;20476;-77
2022/09/27 10:20:28;;;;;;;4.13;3.27;;;15.30;99.90;;;;;;6068361;23;20437;-81
2022/09/27 10:23:11;;;;;;;4.63;4.20;;;15.40;99.90;;;;;;6068046;23;20520;-81
2022/09/27 10:25:56;;;;;;;4.63;3.37;;;15.50;99.90;;;;;;6072078;23;21075;-80
2022/09/27 10:28:36;;;;;;;4.43;3.97;;;15.50;99.90;;;;;;6048729;23;20441;-80
2022/09/27 10:31:06;;;;;;;7.30;6.60;;;15.50;99.90;;;;;;6067736;23;20440;-80
2022/09/27 10:33:34;;;;;;;5.53;4.50;;;15.60;99.90;;;;;;6068424;23;20444;-79
2022/09/27 10:36:02;;;;;;;4.43;3.10;;;15.60;99.90;;;;;;6066264;23;20437;-77
2022/09/27 10:38:37;;;;;;;3.30;3.10;;;15.60;99.90;;;;;;6070554;23;20437;-78
2022/09/27 10:41:22;;;;;;;3.37;3.13;;;15.50;99.90;;;;;;6067868;23;20447;-77
2022/09/27 10:43:52;;;;;;;4.20;3.90;;;15.60;99.90;;;;;;6067585;23;20913;-80
2022/09/27 10:46:27;;;;;;;4.77;4.20;;;15.50;99.90;;;;;;6068281;23;20897;-77
2022/09/27 10:49:14;;;;;;;5.13;3.30;;;15.50;99.90;;;;;;6067974;23;20515;-77
2022/09/27 10:51:41;;;;;;;4.40;3.97;;;15.50;99.90;;;;;;6068185;23;20495;-76
2022/09/27 10:54:20;;;;;;;4.87;4.33;;;15.50;99.90;;;;;;6067750;23;20436;-76
2022/09/27 10:56:56;;;;;;;4.20;3.80;;;15.50;99.90;;;;;;6067617;23;20440;-81
2022/09/27 10:59:24;;;;;;;3.60;3.33;;;15.50;99.90;;;;;;6068368;23;20455;-80
2022/09/27 11:01:52;;;;;;;4.03;3.77;;;15.50;99.90;;;;;;6066882;23;20440;-77
2022/09/27 11:04:29;;;;;;;4.00;3.70;;;15.50;99.90;;;;;;6067902;23;20432;-77
2022/09/27 11:07:09;;;;;;;4.13;3.83;;;15.50;99.90;;;;;;6067846;23;20797;-76
2022/09/27 11:09:47;;;;;;;3.20;3.00;;;15.50;99.90;;;;;;6068049;23;20495;-77
2022/09/27 11:12:17;;;;;;;6.13;3.47;;;15.50;99.90;;;;;;6065717;23;20432;-77
2022/09/27 11:14:56;;;;;;;6.43;3.43;;;15.50;99.90;;;;;;6068105;23;20436;-77
2022/09/27 11:17:32;;;;;;;4.07;3.67;;;15.50;99.90;;;;;;6068039;23;20836;-81
2022/09/27 11:20:13;;;;;;;4.50;4.10;;;15.50;99.90;;;;;;6066875;23;20500;-78
2022/09/27 11:23:05;;;;;;;5.93;5.40;;;15.50;99.90;;;;;;6068056;23;20880;-77
2022/09/27 11:25:41;;;;;;;5.90;5.43;;;15.50;99.90;;;;;;6067811;23;20480;-77
2022/09/27 11:28:22;;;;;;;8.63;6.40;;;15.50;99.90;;;;;;6054037;23;20447;-77
2022/09/27 11:31:03;;;;;;;8.97;8.07;;;15.50;99.90;;;;;;6068365;23;20436;-77
2022/09/27 11:34:12;;;;;;;7.33;6.60;;;15.40;99.90;;;;;;6068503;23;20432;-77
2022/09/27 11:36:52;;;;;;;4.80;4.50;;;15.40;99.90;;;;;;6067789;23;20423;-77
2022/09/27 11:39:26;;;;;;;3.90;3.57;;;15.40;99.90;;;;;;6067388;23;20483;-81
2022/09/27 11:42:08;;;;;;;4.33;3.50;;;15.40;99.90;;;;;;6066890;23;20905;-77
2022/09/27 11:45:09;;;;;;;3.70;3.40;;;15.30;99.90;;;;;;6067543;23;20507;-81
2022/09/27 11:47:49;;;;;;;3.63;3.33;;;15.30;99.90;;;;;;6053369;23;20706;-77
2022/09/27 11:50:49;;;;;;;4.47;4.17;;;15.40;99.90;;;;;;6065894;23;20444;-77
2022/09/27 11:53:32;;;;;;;3.97;3.67;;;15.30;99.90;;;;;;6067652;23;20984;-80
2022/09/27 11:56:08;;;;;;;3.27;2.97;;;15.30;99.90;;;;;;6070242;23;20432;-82
2022/09/27 11:58:48;;;;;;;4.17;2.40;;;15.20;99.90;;;;;;6068462;23;20864;-78
2022/09/27 12:01:28;;;;;;;2.70;2.07;;;15.20;99.90;;;;;;6068431;23;20440;-78
2022/09/27 12:04:25;;;;;;;3.97;3.63;;;15.10;99.90;;;;;;6069560;23;20436;-77
2022/09/27 12:07:02;;;;;;;2.60;1.50;;;15.00;99.90;;;;;;6070553;23;20432;-81
2022/09/27 12:09:34;;;;;;;3.00;1.90;;;14.90;99.90;;;;;;6069397;23;20923;-81
2022/09/27 12:12:05;;;;;;;2.20;1.77;;;14.80;99.90;;;;;;6068846;23;20519;-76
2022/09/27 12:14:39;;;;;;;1.70;1.57;;;14.80;99.90;;;;;;6069463;23;20782;-76
2022/09/27 12:17:12;;;;;;;2.43;2.10;;;14.70;99.90;;;;;;6069892;23;20441;-80
2022/09/27 12:19:42;;;;;;;2.23;2.03;;;14.60;99.90;;;;;;6069010;23;20916;-77
2022/09/27 12:22:15;;;;;;;1.50;1.30;;;14.60;99.90;;;;;;6069698;23;20445;-81
2022/09/27 12:24:44;;;;;;;1.67;1.57;;;14.50;99.90;;;;;;6068844;23;20207;-77
2022/09/27 12:27:15;;;;;;;1.67;1.53;;;14.40;99.90;;;;;;6069224;23;20563;-76
2022/09/27 12:29:44;;;;;;;1.60;1.50;;;14.40;99.90;;;;;;6069030;23;20503;-80
2022/09/27 12:32:16;;;;;;;2.27;2.07;;;14.40;99.90;;;;;;6069557;23;20511;-81
2022/09/27 12:34:49;;;;;;;2.20;2.00;;;14.40;99.90;;;;;;6069110;23;20456;-80
2022/09/27 12:37:24;;;;;;;2.53;2.33;;;14.40;99.90;;;;;;6070110;23;20436;-80
2022/09/27 12:40:00;;;;;;;2.93;2.73;;;14.40;99.90;;;;;;6069596;23;20270;-80
2022/09/27 12:42:33;;;;;;;3.00;2.80;;;14.40;99.90;;;;;;6068263;23;20877;-77
2022/09/27 12:45:00;;;;;;;2.93;2.67;;;14.40;99.90;;;;;;6069236;23;20803;-77
2022/09/27 12:47:54;;;;;;;4.20;3.80;;;14.40;99.90;;;;;;6068796;23;20436;-79
2022/09/27 12:50:29;;;;;;;3.50;3.20;;;14.50;99.90;;;;;;6068940;23;20443;-77
2022/09/27 12:53:04;;;;;;;2.70;2.47;;;14.70;99.90;;;;;;6069220;23;21632;-76
2022/09/27 12:55:59;;;;;;;4.20;3.80;;;14.80;99.90;;;;;;6069251;23;20530;-77
2022/09/27 12:58:46;;;;;;;3.17;2.97;;;14.80;99.90;;;;;;6069117;23;21159;-77
2022/09/27 13:01:26;;;;;;;4.67;3.50;;;14.90;99.90;;;;;;6068284;23;20436;-76
2022/09/27 13:04:16;;;;;;;4.27;3.60;;;15.00;99.90;;;;;;6069175;23;20495;-81
2022/09/27 13:06:59;;;;;;;3.60;3.30;;;15.00;99.90;;;;;;6069105;23;20845;-81
2022/09/27 13:09:56;;;;;;;4.40;4.00;;;15.10;99.90;;;;;;6068142;23;20432;-81
2022/09/27 13:12:34;;;;;;;5.30;3.70;;;15.10;99.90;;;;;;6066113;23;20515;-79
2022/09/27 13:15:05;;;;;;;3.30;2.90;;;15.10;99.90;;;;;;6068933;23;20503;-78
2022/09/27 13:17:48;;;;;;;3.00;2.70;;;15.10;99.90;;;;;;6053545;23;20436;-79
2022/09/27 13:20:52;;;;;;;3.70;2.90;;;15.20;99.90;;;;;;6068623;23;20971;-79
2022/09/27 13:24:02;;;;;;;3.23;2.60;;;15.30;99.90;;;;;;6068516;23;20505;-82
2022/09/27 13:26:51;;;;;;;3.50;2.70;;;15.30;99.90;;;;;;6068927;23;20428;-81
2022/09/27 13:29:28;;;;;;;3.43;3.10;;;15.30;99.90;;;;;;6054594;23;20730;-81